Akeley, MN (56433)

4:33 AM CST on January 23, 2017 (GMT -0600)
Williams Lake | | Change Station

Elev 1394 ft 46.95 °N, 94.66 °W | Updated 8 seconds ago

Overcast
Overcast
32.0 °F
Feels Like 32 °F
N
2.7
Wind Variable Wind from West
Gusts 4.9 mph

Today
High -- | Low -- °F
--% Chance of Precip.
Yesterday
High -- | Low -- °F
Precip. -- in
Pressure 29.81 in
Visibility 8.0 miles
Clouds Overcast 700 ft
Windchill 32 °F
Dew Point 30 °F
Humidity 92%
Rainfall 0.00 in
Snow Depth Not available.
7:53 AM 5:08 PM
Waning Crescent, 19% visible
METAR KPKD 230953Z AUTO 29008KT 8SM OVC007 M01/M03 A2976 RMK AO2 SLP095 T10061028 $
Pressure 29.81 in
Visibility 8.0 miles
Clouds Overcast 700 ft
Windchill 32 °F
Dew Point 30 °F
Humidity 92%
Rainfall 0.00 in
Snow Depth Not available.
7:53 AM 5:08 PM
Waning Crescent, 19% visible
METAR KPKD 230953Z AUTO 29008KT 8SM OVC007 M01/M03 A2976 RMK AO2 SLP095 T10061028 $

Get Your Daily Forecast Email!

Thanks for signing up!

Be on the lookout for a verification email in your inbox.

You'll start receiving the daily forecast at 8 AM.

×

10-Day Weather Forecast

Almanac

Astronomy

Jan. 23, 2017 Rise Set
Actual Time
Civil Twilight
Nautical Twilight
Astronomical Twilight
Moon
Length of Visible Light
Length of Day
Tomorrow will be .
, % of the Moon is Illuminated

Today's Extremes

State Highs State Lows

Community

WunderPhotos

Upload Photos

1,962,540 photos uploaded!

WunderBlog® & News

Nearby

Air Quality

  Air Quality AQ Index Pollutant
Not available.

Snow Depth

Station Depth Elevation

Earthquake Activity

City Distance Mag. Time & Date
Minimum magnitude displayed is 2.5.

Coastal Water Temperatures

Place Temperature

Stations

Nearby Weather Stations

Station Location Temp. Windchill Dew Point Humidity Wind Precip. Elev Updated Type
                   

Watches & Warnings

There are currently no watches in effect.